Time;durP1;ratioP1;P1;durP2;ratioP2;P2;SDS_P1;SDS_P2;PMS_P1;PMS_P2;Temp;Humidity;BMP_temperature;BMP_pressure;BME280_temperature;BME280_humidity;BME280_pressure;Samples;Min_cycle;Max_cycle;Signal;HPM_P1;HPM_P2
2022/09/04 00:01:08;;;;;;;0.30;0.30;;;;;;;;;;7381599;19;20471;-75
2022/09/04 00:03:41;;;;;;;0.20;0.20;;;;;;;;;;7372300;19;20626;-74
2022/09/04 00:06:16;;;;;;;0.30;0.30;;;;;;;;;;7377828;19;20137;-74
2022/09/04 00:09:11;;;;;;;0.20;0.20;;;;;;;;;;7380488;19;20109;-75
2022/09/04 00:11:41;;;;;;;0.30;0.30;;;;;;;;;;7378240;19;20471;-75
2022/09/04 00:14:14;;;;;;;0.40;0.40;;;;;;;;;;7374989;19;20216;-75
2022/09/04 00:16:53;;;;;;;0.30;0.30;;;;;;;;;;7377416;19;20101;-75
2022/09/04 00:19:32;;;;;;;0.40;0.40;;;;;;;;;;7377276;19;20125;-74
2022/09/04 00:22:19;;;;;;;0.32;0.32;;;;;;;;;;7378631;19;20447;-74
2022/09/04 00:24:50;;;;;;;0.30;0.30;;;;;;;;;;7377223;19;20105;-74
2022/09/04 00:27:20;;;;;;;0.30;0.30;;;;;;;;;;7370616;19;20149;-74
2022/09/04 00:29:47;;;;;;;0.30;0.30;;;;;;;;;;7371807;19;20109;-74
2022/09/04 00:32:19;;;;;;;0.30;0.30;;;;;;;;;;7378863;19;20696;-74
2022/09/04 00:34:47;;;;;;;0.30;0.30;;;;;;;;;;7379336;19;20109;-74
2022/09/04 00:37:15;;;;;;;0.30;0.30;;;;;;;;;;7374018;19;20117;-74
2022/09/04 00:39:48;;;;;;;0.30;0.30;;;;;;;;;;7379948;19;20113;-75
2022/09/04 00:42:33;;;;;;;0.30;0.30;;;;;;;;;;7380913;19;20195;-74
2022/09/04 00:45:26;;;;;;;0.30;0.30;;;;;;;;;;7378767;19;20575;-75
2022/09/04 00:48:15;;;;;;;0.30;0.30;;;;;;;;;;7373336;19;20109;-75
2022/09/04 00:51:10;;;;;;;0.30;0.30;;;;;;;;;;7373649;19;20690;-75
2022/09/04 00:53:57;;;;;;;0.30;0.30;;;;;;;;;;7370390;19;20153;-73
2022/09/04 00:56:44;;;;;;;0.25;0.25;;;;;;;;;;7376825;19;20113;-75
2022/09/04 00:59:40;;;;;;;0.30;0.30;;;;;;;;;;7374112;19;20113;-74
2022/09/04 01:02:14;;;;;;;0.30;0.30;;;;;;;;;;7376459;19;20468;-74
2022/09/04 01:04:42;;;;;;;0.30;0.30;;;;;;;;;;7373412;19;20125;-75
2022/09/04 01:07:22;;;;;;;1.50;0.63;;;;;;;;;;7375082;19;20594;-74
2022/09/04 01:09:57;;;;;;;0.40;0.40;;;;;;;;;;7378358;19;20116;-75
2022/09/04 01:12:37;;;;;;;0.20;0.20;;;;;;;;;;7372627;19;20113;-75
2022/09/04 01:15:25;;;;;;;0.30;0.30;;;;;;;;;;7377484;19;20141;-75
2022/09/04 01:18:05;;;;;;;0.30;0.30;;;;;;;;;;7374638;19;20121;-74
2022/09/04 01:21:10;;;;;;;0.30;0.30;;;;;;;;;;7377180;19;20120;-75
2022/09/04 01:24:00;;;;;;;0.30;0.30;;;;;;;;;;7371841;19;20132;-75
2022/09/04 01:26:40;;;;;;;0.30;0.30;;;;;;;;;;7377549;19;20121;-75
2022/09/04 01:29:21;;;;;;;0.30;0.30;;;;;;;;;;7372220;19;20125;-75
2022/09/04 01:32:05;;;;;;;0.30;0.30;;;;;;;;;;7373776;19;20491;-74
2022/09/04 01:34:46;;;;;;;0.30;0.30;;;;;;;;;;7380083;19;20129;-75
2022/09/04 01:37:11;;;;;;;0.30;0.30;;;;;;;;;;7379068;19;20109;-74
2022/09/04 01:39:38;;;;;;;0.30;0.30;;;;;;;;;;7381516;19;20126;-75
2022/09/04 01:42:56;;;;;;;0.30;0.30;;;;;;;;;;7371769;19;20151;-74
2022/09/04 01:45:48;;;;;;;0.30;0.30;;;;;;;;;;7371076;19;20129;-74
2022/09/04 01:48:17;;;;;;;0.30;0.30;;;;;;;;;;7375429;19;20132;-74
2022/09/04 01:50:44;;;;;;;0.30;0.30;;;;;;;;;;7376483;19;20525;-74
2022/09/04 01:53:12;;;;;;;0.30;0.30;;;;;;;;;;7373317;19;20168;-75
2022/09/04 01:55:56;;;;;;;0.30;0.30;;;;;;;;;;7383611;19;20146;-74
2022/09/04 01:58:50;;;;;;;0.30;0.30;;;;;;;;;;7382957;19;20128;-75
2022/09/04 02:01:37;;;;;;;0.35;0.35;;;;;;;;;;7379175;19;20180;-74
2022/09/04 02:04:30;;;;;;;0.30;0.30;;;;;;;;;;7379632;19;20157;-75
2022/09/04 02:07:04;;;;;;;0.20;0.20;;;;;;;;;;7379573;19;20607;-75
2022/09/04 02:09:53;;;;;;;0.30;0.30;;;;;;;;;;7379875;19;20120;-75
2022/09/04 02:12:31;;;;;;;0.30;0.30;;;;;;;;;;7381757;19;20115;-74
2022/09/04 02:15:11;;;;;;;0.30;0.30;;;;;;;;;;7380474;19;20130;-75
2022/09/04 02:17:47;;;;;;;0.20;0.20;;;;;;;;;;7379025;19;20113;-75
2022/09/04 02:20:27;;;;;;;0.30;0.30;;;;;;;;;;7379299;19;20607;-75
2022/09/04 02:23:10;;;;;;;0.30;0.30;;;;;;;;;;7379859;19;20167;-75
2022/09/04 02:26:07;;;;;;;0.40;0.40;;;;;;;;;;7382494;19;20575;-75
2022/09/04 02:28:49;;;;;;;0.30;0.30;;;;;;;;;;7380068;19;20529;-75
2022/09/04 02:31:24;;;;;;;0.30;0.30;;;;;;;;;;7382971;19;20551;-75
2022/09/04 02:34:07;;;;;;;0.30;0.30;;;;;;;;;;7381180;19;20463;-75
2022/09/04 02:36:40;;;;;;;0.30;0.30;;;;;;;;;;7384939;19;20109;-75
2022/09/04 02:39:16;;;;;;;0.30;0.30;;;;;;;;;;7384018;19;20201;-75
2022/09/04 02:41:49;;;;;;;0.30;0.30;;;;;;;;;;7383385;19;20146;-74
2022/09/04 02:44:48;;;;;;;0.30;0.30;;;;;;;;;;7383625;19;20599;-75
2022/09/04 14:48:02;;;;;;;0.30;0.30;;;;;;;;;;7379584;19;20217;-72
2022/09/04 14:50:29;;;;;;;1.48;0.98;;;;;;;;;;7378715;19;20141;-72
2022/09/04 14:53:03;;;;;;;0.30;0.30;;;;;;;;;;7370064;19;20133;-73
2022/09/04 14:55:31;;;;;;;0.30;0.30;;;;;;;;;;7379795;19;20113;-72
2022/09/04 14:58:20;;;;;;;0.50;0.50;;;;;;;;;;7377211;19;20475;-73
2022/09/04 15:01:06;;;;;;;0.30;0.30;;;;;;;;;;7373898;19;20514;-76
2022/09/04 15:03:54;;;;;;;0.40;0.40;;;;;;;;;;7367053;19;20124;-73
2022/09/04 15:06:24;;;;;;;0.30;0.30;;;;;;;;;;7369523;19;20120;-75
2022/09/04 15:08:52;;;;;;;0.30;0.30;;;;;;;;;;7373649;19;20122;-72
2022/09/04 15:11:27;;;;;;;0.40;0.40;;;;;;;;;;7367848;19;20144;-74
2022/09/04 15:13:54;;;;;;;0.30;0.30;;;;;;;;;;7373158;19;20160;-72
2022/09/04 15:16:32;;;;;;;0.30;0.30;;;;;;;;;;7380712;19;20116;-72
2022/09/04 15:19:06;;;;;;;0.52;0.52;;;;;;;;;;7375211;19;20109;-74
2022/09/04 15:21:40;;;;;;;0.30;0.30;;;;;;;;;;7379449;19;20116;-74
2022/09/04 15:24:25;;;;;;;0.30;0.30;;;;;;;;;;7379563;19;20135;-73
2022/09/04 15:27:15;;;;;;;0.40;0.40;;;;;;;;;;7382365;19;20586;-75
2022/09/04 15:29:56;;;;;;;0.30;0.30;;;;;;;;;;7381403;19;20132;-75
2022/09/04 15:32:26;;;;;;;0.30;0.30;;;;;;;;;;7378763;19;20121;-74
2022/09/04 15:35:10;;;;;;;0.30;0.30;;;;;;;;;;7378964;19;20117;-74
2022/09/04 15:37:35;;;;;;;0.30;0.30;;;;;;;;;;7382849;19;20124;-73
2022/09/04 15:40:09;;;;;;;0.45;0.45;;;;;;;;;;7382058;19;20592;-75
2022/09/04 15:42:40;;;;;;;0.38;0.38;;;;;;;;;;7382587;19;20486;-73
2022/09/04 15:45:17;;;;;;;0.30;0.30;;;;;;;;;;7380397;19;20134;-75
2022/09/04 15:47:55;;;;;;;0.40;0.40;;;;;;;;;;7380615;19;20626;-73
2022/09/04 15:50:24;;;;;;;0.30;0.30;;;;;;;;;;7381147;19;20137;-73
2022/09/04 15:53:14;;;;;;;0.30;0.30;;;;;;;;;;7379986;19;20156;-74
2022/09/04 15:55:43;;;;;;;0.30;0.30;;;;;;;;;;7385782;19;20128;-73
2022/09/04 15:58:28;;;;;;;0.40;0.40;;;;;;;;;;7384120;19;20685;-74
2022/09/04 16:01:37;;;;;;;0.65;0.63;;;;;;;;;;7380816;19;20196;-75
2022/09/04 16:04:11;;;;;;;0.43;0.43;;;;;;;;;;7381876;19;20553;-75
2022/09/04 16:06:46;;;;;;;0.30;0.30;;;;;;;;;;7378366;19;20105;-74
2022/09/04 16:09:36;;;;;;;0.40;0.40;;;;;;;;;;7383904;19;20108;-73
2022/09/04 16:12:08;;;;;;;0.40;0.40;;;;;;;;;;7381201;19;20542;-74
2022/09/04 16:14:47;;;;;;;0.75;0.75;;;;;;;;;;7382246;19;20166;-73
2022/09/04 16:17:18;;;;;;;0.40;0.40;;;;;;;;;;7385838;19;20108;-74
2022/09/04 16:19:52;;;;;;;0.43;0.43;;;;;;;;;;7385023;19;20121;-73
2022/09/04 16:22:27;;;;;;;0.30;0.30;;;;;;;;;;7380801;19;20642;-73
2022/09/04 16:25:06;;;;;;;0.40;0.40;;;;;;;;;;7384281;19;20121;-73
2022/09/04 16:27:40;;;;;;;0.40;0.40;;;;;;;;;;7382222;19;20136;-74
2022/09/04 16:30:07;;;;;;;0.30;0.30;;;;;;;;;;7381715;19;20158;-75
2022/09/04 16:32:34;;;;;;;0.40;0.40;;;;;;;;;;7378312;19;20118;-73
2022/09/04 16:35:02;;;;;;;2.10;0.60;;;;;;;;;;7383511;19;20121;-74
2022/09/04 16:37:33;;;;;;;0.30;0.30;;;;;;;;;;7384476;19;20113;-75
2022/09/04 16:40:16;;;;;;;0.30;0.30;;;;;;;;;;7378162;19;20106;-74
2022/09/04 16:42:49;;;;;;;0.30;0.30;;;;;;;;;;7376184;19;20157;-73
2022/09/04 16:45:36;;;;;;;0.30;0.30;;;;;;;;;;7374649;19;20116;-73
2022/09/04 16:48:26;;;;;;;0.30;0.30;;;;;;;;;;7379579;19;20109;-74
2022/09/04 16:51:04;;;;;;;0.32;0.32;;;;;;;;;;7375054;19;20116;-73
2022/09/04 16:53:43;;;;;;;0.47;0.47;;;;;;;;;;7371034;19;20124;-73
2022/09/04 16:56:25;;;;;;;0.30;0.30;;;;;;;;;;7373078;19;20580;-75
2022/09/04 16:58:53;;;;;;;0.40;0.40;;;;;;;;;;7374968;19;20114;-74
2022/09/04 17:01:22;;;;;;;0.30;0.30;;;;;;;;;;7378309;19;20125;-72
2022/09/04 17:04:13;;;;;;;0.30;0.30;;;;;;;;;;7379849;19;20121;-73
2022/09/04 17:06:43;;;;;;;0.70;0.70;;;;;;;;;;7378902;19;20586;-73
2022/09/04 17:09:18;;;;;;;0.30;0.30;;;;;;;;;;7381314;19;20120;-73
2022/09/04 17:11:54;;;;;;;0.50;0.50;;;;;;;;;;7378941;19;20113;-72
2022/09/04 17:14:29;;;;;;;0.60;0.60;;;;;;;;;;7381394;19;20603;-73
2022/09/04 17:17:03;;;;;;;0.30;0.30;;;;;;;;;;7380147;19;20105;-73
2022/09/04 17:19:28;;;;;;;0.30;0.30;;;;;;;;;;7378952;19;20137;-73
2022/09/04 17:22:35;;;;;;;0.30;0.30;;;;;;;;;;7372403;19;20101;-73
2022/09/04 17:25:12;;;;;;;0.55;0.55;;;;;;;;;;7375418;19;20557;-73
2022/09/04 17:28:11;;;;;;;0.40;0.38;;;;;;;;;;7380609;19;20112;-73
2022/09/04 17:30:42;;;;;;;0.40;0.40;;;;;;;;;;7382585;19;20190;-73
2022/09/04 17:33:31;;;;;;;1.95;0.80;;;;;;;;;;7373676;19;20128;-73
2022/09/04 17:36:04;;;;;;;0.93;0.93;;;;;;;;;;7375182;19;20117;-73
2022/09/04 17:38:46;;;;;;;0.30;0.30;;;;;;;;;;7366614;19;20657;-72
2022/09/04 17:41:19;;;;;;;0.30;0.30;;;;;;;;;;7371466;19;20575;-73
2022/09/04 17:43:58;;;;;;;0.30;0.30;;;;;;;;;;7375284;19;20121;-73
2022/09/04 17:46:35;;;;;;;0.85;0.60;;;;;;;;;;7378237;19;20453;-73
2022/09/04 17:49:08;;;;;;;0.30;0.30;;;;;;;;;;7376451;19;20128;-73
2022/09/04 17:51:34;;;;;;;0.35;0.35;;;;;;;;;;7372909;19;20109;-74
2022/09/04 17:54:05;;;;;;;0.30;0.30;;;;;;;;;;7376902;19;20488;-73
2022/09/04 17:56:45;;;;;;;0.30;0.30;;;;;;;;;;7379031;19;20138;-72
2022/09/04 17:59:45;;;;;;;0.52;0.52;;;;;;;;;;7383617;19;20117;-73
2022/09/04 18:02:19;;;;;;;0.30;0.30;;;;;;;;;;7372927;19;20133;-72
2022/09/04 18:04:53;;;;;;;0.30;0.30;;;;;;;;;;7354305;19;20458;-74
2022/09/04 18:07:28;;;;;;;0.30;0.30;;;;;;;;;;7370569;19;20374;-74
2022/09/04 18:10:30;;;;;;;0.30;0.30;;;;;;;;;;7376626;19;20618;-72
2022/09/04 18:13:27;;;;;;;0.30;0.30;;;;;;;;;;7373515;19;20232;-72
2022/09/04 18:16:17;;;;;;;0.30;0.30;;;;;;;;;;7377719;19;20208;-73
2022/09/04 18:18:49;;;;;;;1.42;1.25;;;;;;;;;;7376692;19;20117;-72
2022/09/04 18:21:25;;;;;;;0.30;0.30;;;;;;;;;;7380863;19;20125;-73
2022/09/04 18:24:06;;;;;;;0.32;0.32;;;;;;;;;;7377369;19;20120;-73
2022/09/04 18:26:39;;;;;;;0.35;0.35;;;;;;;;;;7381492;19;20117;-72
2022/09/04 18:29:04;;;;;;;0.43;0.43;;;;;;;;;;7368477;19;20110;-73
2022/09/04 18:31:43;;;;;;;0.40;0.40;;;;;;;;;;7370989;19;20480;-73
2022/09/04 18:34:25;;;;;;;0.40;0.40;;;;;;;;;;7378332;19;20184;-72
2022/09/04 18:37:14;;;;;;;14.25;1.40;;;;;;;;;;7373979;19;20136;-73
2022/09/04 18:39:49;;;;;;;0.63;0.63;;;;;;;;;;7380612;19;20105;-73
2022/09/04 18:42:25;;;;;;;0.73;0.52;;;;;;;;;;7376945;19;20128;-73
2022/09/04 18:45:14;;;;;;;0.47;0.47;;;;;;;;;;7381513;19;20466;-73
2022/09/04 18:47:47;;;;;;;0.30;0.30;;;;;;;;;;7386579;19;20105;-72
2022/09/04 18:50:22;;;;;;;0.30;0.30;;;;;;;;;;7382731;19;20116;-72
2022/09/04 18:53:02;;;;;;;0.30;0.30;;;;;;;;;;7385902;19;20137;-72
2022/09/04 18:55:36;;;;;;;0.50;0.50;;;;;;;;;;7386818;19;20112;-71
2022/09/04 18:58:22;;;;;;;0.30;0.30;;;;;;;;;;7386632;19;20105;-72
2022/09/04 19:00:58;;;;;;;0.40;0.40;;;;;;;;;;7388333;19;20125;-72
2022/09/04 19:03:30;;;;;;;0.30;0.30;;;;;;;;;;7383138;19;20192;-72
2022/09/04 19:06:01;;;;;;;0.65;0.65;;;;;;;;;;7385379;19;20718;-72
2022/09/04 19:08:32;;;;;;;0.43;0.43;;;;;;;;;;7386386;19;20468;-73
2022/09/04 19:11:04;;;;;;;0.30;0.30;;;;;;;;;;7384811;19;20197;-72
2022/09/04 19:13:35;;;;;;;0.30;0.30;;;;;;;;;;7385026;19;20137;-71
2022/09/04 19:16:02;;;;;;;0.30;0.30;;;;;;;;;;7385114;19;20134;-72
2022/09/04 19:18:59;;;;;;;0.30;0.30;;;;;;;;;;7387030;19;20130;-73
2022/09/04 19:21:41;;;;;;;0.30;0.30;;;;;;;;;;7386985;19;20961;-72
2022/09/04 19:24:28;;;;;;;0.30;0.30;;;;;;;;;;7384494;19;20129;-72
2022/09/04 19:26:54;;;;;;;0.30;0.30;;;;;;;;;;7383877;19;20113;-72
2022/09/04 19:29:44;;;;;;;0.30;0.30;;;;;;;;;;7386915;19;20447;-72
2022/09/04 19:32:17;;;;;;;0.60;0.60;;;;;;;;;;7376765;19;20113;-73
2022/09/04 19:34:49;;;;;;;0.38;0.38;;;;;;;;;;7379571;19;20101;-72
2022/09/04 19:37:23;;;;;;;0.30;0.30;;;;;;;;;;7384248;19;20172;-72
2022/09/04 19:39:52;;;;;;;0.40;0.40;;;;;;;;;;7385447;19;20113;-72
2022/09/04 19:42:25;;;;;;;0.30;0.30;;;;;;;;;;7375759;19;20117;-73
2022/09/04 19:44:53;;;;;;;0.30;0.30;;;;;;;;;;7385525;19;20142;-72
2022/09/04 19:47:32;;;;;;;0.30;0.30;;;;;;;;;;7383745;19;20499;-72
2022/09/04 19:50:34;;;;;;;0.47;0.47;;;;;;;;;;7381637;19;21105;-72
2022/09/04 19:53:10;;;;;;;0.20;0.20;;;;;;;;;;7373884;19;20120;-73
2022/09/04 19:55:40;;;;;;;0.30;0.30;;;;;;;;;;7382354;19;20109;-72
2022/09/04 19:58:35;;;;;;;0.30;0.30;;;;;;;;;;7383557;19;20199;-72
2022/09/04 20:01:02;;;;;;;0.30;0.30;;;;;;;;;;7370099;19;20216;-72
2022/09/04 20:03:30;;;;;;;0.30;0.30;;;;;;;;;;7369317;19;20551;-72
2022/09/04 20:06:06;;;;;;;0.47;0.47;;;;;;;;;;7374737;19;20139;-72
2022/09/04 20:08:35;;;;;;;0.43;0.43;;;;;;;;;;7369595;19;20129;-72
2022/09/04 20:11:07;;;;;;;0.30;0.30;;;;;;;;;;7365637;19;20153;-73
2022/09/04 20:13:38;;;;;;;1.00;0.98;;;;;;;;;;7372885;19;20137;-71
2022/09/04 20:16:21;;;;;;;0.30;0.30;;;;;;;;;;7384566;19;20595;-73
2022/09/04 20:18:55;;;;;;;0.30;0.30;;;;;;;;;;7387021;19;20636;-72
2022/09/04 20:21:24;;;;;;;0.30;0.30;;;;;;;;;;7382596;19;20113;-72
2022/09/04 20:24:25;;;;;;;0.30;0.30;;;;;;;;;;7378929;19;20472;-71
2022/09/04 20:27:23;;;;;;;0.30;0.30;;;;;;;;;;7383416;19;20482;-72
2022/09/04 20:29:54;;;;;;;0.30;0.30;;;;;;;;;;7385630;19;20124;-72
2022/09/04 20:32:32;;;;;;;0.30;0.30;;;;;;;;;;7380716;19;20481;-71
2022/09/04 20:35:12;;;;;;;0.30;0.30;;;;;;;;;;7384887;19;20105;-71
2022/09/04 20:37:38;;;;;;;0.30;0.30;;;;;;;;;;7378119;19;20490;-72
2022/09/04 20:40:31;;;;;;;0.30;0.30;;;;;;;;;;7378230;19;20113;-72
2022/09/04 20:43:09;;;;;;;0.30;0.30;;;;;;;;;;7376633;19;20468;-71
2022/09/04 20:45:48;;;;;;;0.40;0.40;;;;;;;;;;7382472;19;20113;-72
2022/09/04 20:48:17;;;;;;;1.20;1.20;;;;;;;;;;7382651;19;20117;-72
2022/09/04 20:50:49;;;;;;;0.40;0.40;;;;;;;;;;7387524;19;20644;-72
2022/09/04 20:53:46;;;;;;;0.30;0.30;;;;;;;;;;7378547;19;20167;-73
2022/09/04 20:56:53;;;;;;;0.50;0.50;;;;;;;;;;7386115;19;20109;-72
2022/09/04 20:59:28;;;;;;;0.30;0.30;;;;;;;;;;7378069;19;20121;-72
2022/09/04 21:02:06;;;;;;;0.30;0.30;;;;;;;;;;7378366;19;20595;-72
2022/09/04 21:04:40;;;;;;;0.20;0.20;;;;;;;;;;7378295;19;20464;-72
2022/09/04 21:07:12;;;;;;;0.30;0.30;;;;;;;;;;7383264;19;20117;-71
2022/09/04 21:09:50;;;;;;;0.30;0.30;;;;;;;;;;7381241;19;20141;-72
2022/09/04 21:12:32;;;;;;;0.88;0.88;;;;;;;;;;7379593;19;20200;-72
2022/09/04 21:15:13;;;;;;;0.20;0.20;;;;;;;;;;7382431;19;20107;-72
2022/09/04 21:18:02;;;;;;;0.30;0.30;;;;;;;;;;7383494;19;20471;-72
2022/09/04 21:20:37;;;;;;;0.98;0.50;;;;;;;;;;7378086;19;20140;-72
2022/09/04 21:23:11;;;;;;;0.30;0.30;;;;;;;;;;7377524;19;20156;-72
2022/09/04 21:25:55;;;;;;;0.30;0.30;;;;;;;;;;7381684;19;20108;-72
2022/09/04 21:28:59;;;;;;;0.80;0.80;;;;;;;;;;7381358;19;20120;-72
2022/09/04 21:31:48;;;;;;;0.30;0.30;;;;;;;;;;7378916;19;20136;-71
2022/09/04 21:34:45;;;;;;;0.30;0.30;;;;;;;;;;7377543;19;20129;-72
2022/09/04 21:37:21;;;;;;;0.30;0.30;;;;;;;;;;7380740;19;20113;-72
2022/09/04 21:40:12;;;;;;;0.40;0.40;;;;;;;;;;7380013;19;20121;-73
2022/09/04 21:42:51;;;;;;;0.30;0.30;;;;;;;;;;7378832;19;20133;-71
2022/09/04 21:45:32;;;;;;;0.47;0.47;;;;;;;;;;7377433;19;20113;-72
2022/09/04 21:48:12;;;;;;;0.30;0.30;;;;;;;;;;7379554;19;20117;-72
2022/09/04 21:50:53;;;;;;;0.30;0.30;;;;;;;;;;7373336;19;20603;-72
2022/09/04 21:53:45;;;;;;;0.30;0.30;;;;;;;;;;7374202;19;20165;-72
2022/09/04 21:56:50;;;;;;;0.30;0.30;;;;;;;;;;7380577;19;20188;-72
2022/09/04 21:59:37;;;;;;;0.40;0.40;;;;;;;;;;7384973;19;20120;-71
2022/09/04 22:02:33;;;;;;;0.30;0.30;;;;;;;;;;7371488;19;20491;-71
2022/09/04 22:05:11;;;;;;;0.20;0.20;;;;;;;;;;7380044;19;20131;-73
2022/09/04 22:07:48;;;;;;;0.30;0.30;;;;;;;;;;7386592;19;20116;-72
2022/09/04 22:10:42;;;;;;;0.30;0.30;;;;;;;;;;7387415;19;20646;-71
2022/09/04 22:13:25;;;;;;;0.40;0.40;;;;;;;;;;7383781;19;20607;-73
2022/09/04 22:16:12;;;;;;;0.30;0.30;;;;;;;;;;7386598;19;20113;-71
2022/09/04 22:18:40;;;;;;;0.30;0.30;;;;;;;;;;7390305;19;20144;-72
2022/09/04 22:21:43;;;;;;;0.43;0.38;;;;;;;;;;7389443;19;20129;-72
2022/09/04 22:24:09;;;;;;;0.30;0.30;;;;;;;;;;7386910;19;20564;-71
2022/09/04 22:26:59;;;;;;;0.40;0.40;;;;;;;;;;7392753;19;20117;-72
2022/09/04 22:29:42;;;;;;;0.30;0.30;;;;;;;;;;7389762;19;20694;-72
2022/09/04 22:32:26;;;;;;;0.30;0.30;;;;;;;;;;7389728;19;20603;-71
2022/09/04 22:35:16;;;;;;;0.30;0.30;;;;;;;;;;7391778;19;20528;-72
2022/09/04 22:38:03;;;;;;;0.30;0.30;;;;;;;;;;7392644;19;20113;-72
2022/09/04 22:40:32;;;;;;;0.30;0.30;;;;;;;;;;7388265;19;20147;-72
2022/09/04 22:43:08;;;;;;;0.30;0.30;;;;;;;;;;7385307;19;20133;-72
2022/09/04 22:45:39;;;;;;;0.30;0.30;;;;;;;;;;7389839;19;20124;-72
2022/09/04 22:48:55;;;;;;;0.30;0.30;;;;;;;;;;7392386;19;20162;-72
2022/09/04 22:51:33;;;;;;;0.30;0.30;;;;;;;;;;7388506;19;20188;-72
2022/09/04 22:54:05;;;;;;;0.30;0.30;;;;;;;;;;7381294;19;20512;-71
2022/09/04 22:56:46;;;;;;;0.30;0.30;;;;;;;;;;7387110;19;20124;-72
2022/09/04 22:59:45;;;;;;;0.30;0.30;;;;;;;;;;7391946;19;20105;-72
2022/09/04 23:02:19;;;;;;;0.32;0.32;;;;;;;;;;7383995;19;20133;-72
2022/09/04 23:04:51;;;;;;;0.22;0.22;;;;;;;;;;7389203;19;20177;-71
2022/09/04 23:07:33;;;;;;;0.68;0.68;;;;;;;;;;7386620;19;20109;-72
2022/09/04 23:10:26;;;;;;;0.30;0.30;;;;;;;;;;7387220;19;20222;-72
2022/09/04 23:13:03;;;;;;;0.30;0.30;;;;;;;;;;7378722;19;20156;-72
2022/09/04 23:15:47;;;;;;;0.40;0.40;;;;;;;;;;7386858;19;20125;-72
2022/09/04 23:18:16;;;;;;;0.30;0.30;;;;;;;;;;7385000;19;20172;-72
2022/09/04 23:20:51;;;;;;;0.30;0.30;;;;;;;;;;7385890;19;20468;-72
2022/09/04 23:23:32;;;;;;;0.30;0.30;;;;;;;;;;7385061;19;20125;-72
2022/09/04 23:26:16;;;;;;;0.30;0.30;;;;;;;;;;7387653;19;20173;-71
2022/09/04 23:29:05;;;;;;;0.30;0.30;;;;;;;;;;7380333;19;20598;-72
2022/09/04 23:31:36;;;;;;;0.30;0.30;;;;;;;;;;7381153;19;20110;-72
2022/09/04 23:34:38;;;;;;;0.40;0.40;;;;;;;;;;7381415;19;20121;-72
2022/09/04 23:37:25;;;;;;;0.30;0.30;;;;;;;;;;7382055;19;20112;-72
2022/09/04 23:40:05;;;;;;;0.40;0.40;;;;;;;;;;7385973;19;20129;-72
2022/09/04 23:42:49;;;;;;;0.30;0.30;;;;;;;;;;7384527;19;20180;-73
2022/09/04 23:46:06;;;;;;;0.30;0.30;;;;;;;;;;7386246;19;20446;-72
2022/09/04 23:48:43;;;;;;;0.30;0.30;;;;;;;;;;7383160;19;20109;-72
2022/09/04 23:51:19;;;;;;;0.30;0.30;;;;;;;;;;7385266;19;20113;-72
2022/09/04 23:53:57;;;;;;;0.20;0.20;;;;;;;;;;7383654;19;20129;-72
2022/09/04 23:56:28;;;;;;;0.30;0.30;;;;;;;;;;7384735;19;20164;-72
2022/09/04 23:59:34;;;;;;;0.30;0.30;;;;;;;;;;7384235;19;20109;-71
